sensor_id;sensor_type;location;lat;lon;timestamp;P1;durP1;ratioP1;P2;durP2;ratioP2
29534;SDS011;16475;52.650;8.116;2023-03-01T00:01:03;12.30;;;5.17;;
29534;SDS011;16475;52.650;8.116;2023-03-01T00:03:30;2.47;;;2.38;;
29534;SDS011;16475;52.650;8.116;2023-03-01T00:05:56;4.00;;;3.70;;
29534;SDS011;16475;52.650;8.116;2023-03-01T00:08:22;7.57;;;5.53;;
29534;SDS011;16475;52.650;8.116;2023-03-01T00:10:47;6.10;;;3.70;;
29534;SDS011;16475;52.650;8.116;2023-03-01T00:13:12;10.23;;;4.87;;
29534;SDS011;16475;52.650;8.116;2023-03-01T00:15:38;4.30;;;3.83;;
29534;SDS011;16475;52.650;8.116;2023-03-01T00:18:05;8.00;;;4.07;;
29534;SDS011;16475;52.650;8.116;2023-03-01T00:20:30;21.70;;;5.97;;
29534;SDS011;16475;52.650;8.116;2023-03-01T00:22:55;7.37;;;3.70;;
29534;SDS011;16475;52.650;8.116;2023-03-01T00:25:21;4.33;;;4.03;;
29534;SDS011;16475;52.650;8.116;2023-03-01T00:27:46;3.07;;;2.87;;
29534;SDS011;16475;52.650;8.116;2023-03-01T00:30:13;4.03;;;2.95;;
29534;SDS011;16475;52.650;8.116;2023-03-01T00:32:39;3.23;;;3.00;;
29534;SDS011;16475;52.650;8.116;2023-03-01T00:35:04;21.53;;;6.67;;
29534;SDS011;16475;52.650;8.116;2023-03-01T00:37:30;3.63;;;3.45;;
29534;SDS011;16475;52.650;8.116;2023-03-01T00:39:55;6.40;;;5.00;;
29534;SDS011;16475;52.650;8.116;2023-03-01T00:42:21;3.93;;;3.63;;
29534;SDS011;16475;52.650;8.116;2023-03-01T00:44:47;5.03;;;3.83;;
29534;SDS011;16475;52.650;8.116;2023-03-01T00:47:12;2.77;;;2.57;;
29534;SDS011;16475;52.650;8.116;2023-03-01T00:49:38;5.00;;;4.30;;
29534;SDS011;16475;52.650;8.116;2023-03-01T00:52:04;7.20;;;5.77;;
29534;SDS011;16475;52.650;8.116;2023-03-01T00:54:29;6.13;;;2.90;;
29534;SDS011;16475;52.650;8.116;2023-03-01T00:56:54;8.90;;;5.23;;
29534;SDS011;16475;52.650;8.116;2023-03-01T00:59:20;3.40;;;3.20;;
29534;SDS011;16475;52.650;8.116;2023-03-01T01:01:45;3.37;;;3.07;;
29534;SDS011;16475;52.650;8.116;2023-03-01T01:04:11;4.13;;;3.13;;
29534;SDS011;16475;52.650;8.116;2023-03-01T01:06:39;1.45;;;1.45;;
29534;SDS011;16475;52.650;8.116;2023-03-01T01:09:08;1.63;;;1.63;;
29534;SDS011;16475;52.650;8.116;2023-03-01T01:11:34;1.70;;;1.70;;
29534;SDS011;16475;52.650;8.116;2023-03-01T01:14:03;4.63;;;3.72;;
29534;SDS011;16475;52.650;8.116;2023-03-01T01:16:28;17.20;;;3.90;;
29534;SDS011;16475;52.650;8.116;2023-03-01T01:18:54;2.23;;;2.13;;
29534;SDS011;16475;52.650;8.116;2023-03-01T01:21:21;2.93;;;2.73;;
29534;SDS011;16475;52.650;8.116;2023-03-01T01:23:48;10.95;;;4.57;;
29534;SDS011;16475;52.650;8.116;2023-03-01T01:26:15;6.90;;;3.13;;
29534;SDS011;16475;52.650;8.116;2023-03-01T01:28:45;5.32;;;3.20;;
29534;SDS011;16475;52.650;8.116;2023-03-01T01:31:11;2.25;;;2.15;;
29534;SDS011;16475;52.650;8.116;2023-03-01T01:33:36;2.37;;;2.27;;
29534;SDS011;16475;52.650;8.116;2023-03-01T01:36:02;2.00;;;1.90;;
29534;SDS011;16475;52.650;8.116;2023-03-01T01:38:28;5.00;;;2.78;;
29534;SDS011;16475;52.650;8.116;2023-03-01T01:40:53;2.70;;;2.57;;
29534;SDS011;16475;52.650;8.116;2023-03-01T01:45:53;7.18;;;2.10;;
29534;SDS011;16475;52.650;8.116;2023-03-01T01:48:21;8.23;;;4.15;;
29534;SDS011;16475;52.650;8.116;2023-03-01T01:50:50;6.78;;;2.47;;
29534;SDS011;16475;52.650;8.116;2023-03-01T01:53:25;4.35;;;3.50;;
29534;SDS011;16475;52.650;8.116;2023-03-01T01:55:53;3.77;;;3.47;;
29534;SDS011;16475;52.650;8.116;2023-03-01T01:58:22;2.78;;;2.05;;
29534;SDS011;16475;52.650;8.116;2023-03-01T02:00:49;8.13;;;2.83;;
29534;SDS011;16475;52.650;8.116;2023-03-01T02:03:16;1.40;;;1.40;;
29534;SDS011;16475;52.650;8.116;2023-03-01T02:05:46;2.45;;;2.20;;
29534;SDS011;16475;52.650;8.116;2023-03-01T02:08:15;4.97;;;3.75;;
29534;SDS011;16475;52.650;8.116;2023-03-01T02:10:43;3.00;;;2.83;;
29534;SDS011;16475;52.650;8.116;2023-03-01T02:13:09;3.40;;;2.83;;
29534;SDS011;16475;52.650;8.116;2023-03-01T02:15:36;2.90;;;2.70;;
29534;SDS011;16475;52.650;8.116;2023-03-01T02:18:02;2.13;;;2.03;;
29534;SDS011;16475;52.650;8.116;2023-03-01T02:20:33;3.20;;;3.00;;
29534;SDS011;16475;52.650;8.116;2023-03-01T02:23:00;3.50;;;2.90;;
29534;SDS011;16475;52.650;8.116;2023-03-01T02:25:27;2.60;;;1.93;;
29534;SDS011;16475;52.650;8.116;2023-03-01T02:30:40;6.95;;;3.30;;
29534;SDS011;16475;52.650;8.116;2023-03-01T02:33:26;2.15;;;2.05;;
29534;SDS011;16475;52.650;8.116;2023-03-01T02:35:52;1.97;;;1.87;;
29534;SDS011;16475;52.650;8.116;2023-03-01T02:38:19;2.80;;;2.65;;
29534;SDS011;16475;52.650;8.116;2023-03-01T02:40:45;3.33;;;2.22;;
29534;SDS011;16475;52.650;8.116;2023-03-01T02:43:11;2.28;;;2.17;;
29534;SDS011;16475;52.650;8.116;2023-03-01T02:45:37;2.67;;;2.23;;
29534;SDS011;16475;52.650;8.116;2023-03-01T02:48:02;29.57;;;3.03;;
29534;SDS011;16475;52.650;8.116;2023-03-01T02:55:33;3.15;;;2.83;;
29534;SDS011;16475;52.650;8.116;2023-03-01T02:57:58;2.00;;;1.90;;
29534;SDS011;16475;52.650;8.116;2023-03-01T03:00:28;3.92;;;2.05;;
29534;SDS011;16475;52.650;8.116;2023-03-01T03:02:58;1.60;;;1.60;;
29534;SDS011;16475;52.650;8.116;2023-03-01T03:05:24;5.03;;;3.50;;
29534;SDS011;16475;52.650;8.116;2023-03-01T03:07:53;1.58;;;1.48;;
29534;SDS011;16475;52.650;8.116;2023-03-01T03:12:53;8.93;;;2.33;;
29534;SDS011;16475;52.650;8.116;2023-03-01T03:15:19;4.90;;;4.50;;
29534;SDS011;16475;52.650;8.116;2023-03-01T03:17:46;1.65;;;1.65;;
29534;SDS011;16475;52.650;8.116;2023-03-01T03:20:12;1.00;;;1.00;;
29534;SDS011;16475;52.650;8.116;2023-03-01T03:22:43;3.25;;;3.05;;
29534;SDS011;16475;52.650;8.116;2023-03-01T03:25:09;1.33;;;1.23;;
29534;SDS011;16475;52.650;8.116;2023-03-01T03:27:36;1.52;;;1.50;;
29534;SDS011;16475;52.650;8.116;2023-03-01T03:30:02;5.50;;;2.45;;
29534;SDS011;16475;52.650;8.116;2023-03-01T03:32:33;1.75;;;1.75;;
29534;SDS011;16475;52.650;8.116;2023-03-01T03:35:00;1.70;;;1.60;;
29534;SDS011;16475;52.650;8.116;2023-03-01T03:37:25;1.77;;;1.67;;
29534;SDS011;16475;52.650;8.116;2023-03-01T03:40:09;1.20;;;1.20;;
29534;SDS011;16475;52.650;8.116;2023-03-01T03:42:40;1.52;;;1.52;;
29534;SDS011;16475;52.650;8.116;2023-03-01T03:45:05;1.97;;;1.87;;
29534;SDS011;16475;52.650;8.116;2023-03-01T03:47:31;3.00;;;2.00;;
29534;SDS011;16475;52.650;8.116;2023-03-01T03:49:56;1.23;;;1.20;;
29534;SDS011;16475;52.650;8.116;2023-03-01T03:52:22;5.10;;;3.50;;
29534;SDS011;16475;52.650;8.116;2023-03-01T03:54:47;1.83;;;1.83;;
29534;SDS011;16475;52.650;8.116;2023-03-01T03:57:12;1.37;;;1.37;;
29534;SDS011;16475;52.650;8.116;2023-03-01T03:59:37;2.60;;;2.50;;
29534;SDS011;16475;52.650;8.116;2023-03-01T04:02:03;2.37;;;2.20;;
29534;SDS011;16475;52.650;8.116;2023-03-01T04:04:28;2.27;;;2.17;;
29534;SDS011;16475;52.650;8.116;2023-03-01T04:06:53;2.73;;;2.50;;
29534;SDS011;16475;52.650;8.116;2023-03-01T04:09:19;2.27;;;2.17;;
29534;SDS011;16475;52.650;8.116;2023-03-01T04:11:44;3.47;;;3.17;;
29534;SDS011;16475;52.650;8.116;2023-03-01T04:14:09;2.27;;;1.47;;
29534;SDS011;16475;52.650;8.116;2023-03-01T04:16:35;2.00;;;1.93;;
29534;SDS011;16475;52.650;8.116;2023-03-01T04:19:00;1.70;;;1.50;;
29534;SDS011;16475;52.650;8.116;2023-03-01T04:21:25;2.30;;;2.10;;
29534;SDS011;16475;52.650;8.116;2023-03-01T04:23:51;3.17;;;1.97;;
29534;SDS011;16475;52.650;8.116;2023-03-01T04:26:17;1.52;;;1.42;;
29534;SDS011;16475;52.650;8.116;2023-03-01T04:28:43;14.55;;;2.22;;
29534;SDS011;16475;52.650;8.116;2023-03-01T04:31:14;1.08;;;1.08;;
29534;SDS011;16475;52.650;8.116;2023-03-01T04:33:53;2.60;;;2.42;;
29534;SDS011;16475;52.650;8.116;2023-03-01T04:36:20;1.42;;;1.42;;
29534;SDS011;16475;52.650;8.116;2023-03-01T04:38:48;1.35;;;1.35;;
29534;SDS011;16475;52.650;8.116;2023-03-01T04:41:14;1.60;;;1.50;;
29534;SDS011;16475;52.650;8.116;2023-03-01T04:43:43;29.42;;;1.35;;
29534;SDS011;16475;52.650;8.116;2023-03-01T04:46:12;2.47;;;2.30;;
29534;SDS011;16475;52.650;8.116;2023-03-01T04:48:39;2.95;;;2.75;;
29534;SDS011;16475;52.650;8.116;2023-03-01T04:51:05;1.33;;;1.33;;
29534;SDS011;16475;52.650;8.116;2023-03-01T04:53:31;1.90;;;1.80;;
29534;SDS011;16475;52.650;8.116;2023-03-01T04:55:57;2.23;;;2.13;;
29534;SDS011;16475;52.650;8.116;2023-03-01T04:58:23;1.37;;;1.37;;
29534;SDS011;16475;52.650;8.116;2023-03-01T05:00:49;1.30;;;1.20;;
29534;SDS011;16475;52.650;8.116;2023-03-01T05:03:14;1.80;;;1.77;;
29534;SDS011;16475;52.650;8.116;2023-03-01T05:05:43;1.50;;;1.50;;
29534;SDS011;16475;52.650;8.116;2023-03-01T05:08:09;1.75;;;1.65;;
29534;SDS011;16475;52.650;8.116;2023-03-01T05:10:42;2.20;;;2.20;;
29534;SDS011;16475;52.650;8.116;2023-03-01T05:13:07;1.97;;;1.87;;
29534;SDS011;16475;52.650;8.116;2023-03-01T05:15:33;2.90;;;2.63;;
29534;SDS011;16475;52.650;8.116;2023-03-01T05:17:58;1.40;;;1.40;;
29534;SDS011;16475;52.650;8.116;2023-03-01T05:20:25;2.40;;;2.30;;
29534;SDS011;16475;52.650;8.116;2023-03-01T05:22:54;1.30;;;1.30;;
29534;SDS011;16475;52.650;8.116;2023-03-01T05:25:21;1.50;;;1.50;;
29534;SDS011;16475;52.650;8.116;2023-03-01T05:27:47;1.73;;;1.63;;
29534;SDS011;16475;52.650;8.116;2023-03-01T05:30:13;1.05;;;1.05;;
29534;SDS011;16475;52.650;8.116;2023-03-01T05:32:40;1.17;;;1.17;;
29534;SDS011;16475;52.650;8.116;2023-03-01T05:35:06;2.70;;;2.47;;
29534;SDS011;16475;52.650;8.116;2023-03-01T05:37:31;11.73;;;2.67;;
29534;SDS011;16475;52.650;8.116;2023-03-01T05:39:57;2.70;;;1.73;;
29534;SDS011;16475;52.650;8.116;2023-03-01T05:42:22;1.83;;;1.73;;
29534;SDS011;16475;52.650;8.116;2023-03-01T05:44:47;3.47;;;1.50;;
29534;SDS011;16475;52.650;8.116;2023-03-01T05:47:12;1.40;;;1.40;;
29534;SDS011;16475;52.650;8.116;2023-03-01T05:49:38;0.80;;;0.80;;
29534;SDS011;16475;52.650;8.116;2023-03-01T05:52:03;6.73;;;1.97;;
29534;SDS011;16475;52.650;8.116;2023-03-01T05:54:28;2.10;;;1.90;;
29534;SDS011;16475;52.650;8.116;2023-03-01T05:56:54;2.00;;;1.33;;
29534;SDS011;16475;52.650;8.116;2023-03-01T05:59:19;2.50;;;1.83;;
29534;SDS011;16475;52.650;8.116;2023-03-01T06:01:45;70.53;;;4.17;;
29534;SDS011;16475;52.650;8.116;2023-03-01T06:04:10;4.20;;;3.13;;
29534;SDS011;16475;52.650;8.116;2023-03-01T06:06:36;2.77;;;2.63;;
29534;SDS011;16475;52.650;8.116;2023-03-01T06:09:02;3.00;;;1.05;;
29534;SDS011;16475;52.650;8.116;2023-03-01T06:11:28;3.70;;;1.98;;
29534;SDS011;16475;52.650;8.116;2023-03-01T06:13:53;1.10;;;1.10;;
29534;SDS011;16475;52.650;8.116;2023-03-01T06:16:19;1.20;;;1.10;;
29534;SDS011;16475;52.650;8.116;2023-03-01T06:18:44;2.07;;;1.13;;
29534;SDS011;16475;52.650;8.116;2023-03-01T06:21:09;5.40;;;2.20;;
29534;SDS011;16475;52.650;8.116;2023-03-01T06:23:35;1.93;;;1.87;;
29534;SDS011;16475;52.650;8.116;2023-03-01T06:26:04;1.43;;;1.33;;
29534;SDS011;16475;52.650;8.116;2023-03-01T06:28:30;1.80;;;1.70;;
29534;SDS011;16475;52.650;8.116;2023-03-01T06:30:55;1.83;;;1.73;;
29534;SDS011;16475;52.650;8.116;2023-03-01T06:33:21;1.20;;;1.10;;
29534;SDS011;16475;52.650;8.116;2023-03-01T06:35:48;1.00;;;1.00;;
29534;SDS011;16475;52.650;8.116;2023-03-01T06:38:13;38.50;;;3.00;;
29534;SDS011;16475;52.650;8.116;2023-03-01T06:40:43;2.55;;;1.55;;
29534;SDS011;16475;52.650;8.116;2023-03-01T06:43:09;1.00;;;1.00;;
29534;SDS011;16475;52.650;8.116;2023-03-01T06:45:34;3.43;;;1.70;;
29534;SDS011;16475;52.650;8.116;2023-03-01T06:48:03;2.10;;;2.00;;
29534;SDS011;16475;52.650;8.116;2023-03-01T06:50:29;0.90;;;0.90;;
29534;SDS011;16475;52.650;8.116;2023-03-01T06:52:55;1.23;;;1.23;;
29534;SDS011;16475;52.650;8.116;2023-03-01T06:55:21;1.60;;;1.50;;
29534;SDS011;16475;52.650;8.116;2023-03-01T06:57:46;3.33;;;3.10;;
29534;SDS011;16475;52.650;8.116;2023-03-01T07:00:12;1.20;;;1.20;;
29534;SDS011;16475;52.650;8.116;2023-03-01T07:02:38;1.65;;;1.60;;
29534;SDS011;16475;52.650;8.116;2023-03-01T07:05:03;1.77;;;1.67;;
29534;SDS011;16475;52.650;8.116;2023-03-01T07:07:28;2.77;;;2.50;;
29534;SDS011;16475;52.650;8.116;2023-03-01T07:09:54;3.70;;;1.20;;
29534;SDS011;16475;52.650;8.116;2023-03-01T07:12:19;1.83;;;1.73;;
29534;SDS011;16475;52.650;8.116;2023-03-01T07:14:44;1.70;;;1.27;;
29534;SDS011;16475;52.650;8.116;2023-03-01T07:17:10;1.63;;;1.63;;
29534;SDS011;16475;52.650;8.116;2023-03-01T07:19:35;3.57;;;3.37;;
29534;SDS011;16475;52.650;8.116;2023-03-01T07:22:00;2.30;;;2.20;;
29534;SDS011;16475;52.650;8.116;2023-03-01T07:24:26;2.00;;;1.90;;
29534;SDS011;16475;52.650;8.116;2023-03-01T07:26:51;8.00;;;3.83;;
29534;SDS011;16475;52.650;8.116;2023-03-01T07:29:18;1.80;;;1.70;;
29534;SDS011;16475;52.650;8.116;2023-03-01T07:31:43;8.20;;;3.43;;
29534;SDS011;16475;52.650;8.116;2023-03-01T07:34:09;10.63;;;2.87;;
29534;SDS011;16475;52.650;8.116;2023-03-01T07:36:35;1.77;;;1.70;;
29534;SDS011;16475;52.650;8.116;2023-03-01T07:39:01;3.90;;;2.30;;
29534;SDS011;16475;52.650;8.116;2023-03-01T07:41:28;3.17;;;2.95;;
29534;SDS011;16475;52.650;8.116;2023-03-01T07:43:53;9.27;;;4.10;;
29534;SDS011;16475;52.650;8.116;2023-03-01T07:46:19;6.33;;;3.10;;
29534;SDS011;16475;52.650;8.116;2023-03-01T07:48:44;3.40;;;3.20;;
29534;SDS011;16475;52.650;8.116;2023-03-01T07:51:10;3.63;;;3.13;;
29534;SDS011;16475;52.650;8.116;2023-03-01T07:53:35;4.23;;;2.77;;
29534;SDS011;16475;52.650;8.116;2023-03-01T07:56:01;2.30;;;2.23;;
29534;SDS011;16475;52.650;8.116;2023-03-01T07:58:30;5.10;;;4.03;;
29534;SDS011;16475;52.650;8.116;2023-03-01T08:00:56;5.53;;;4.83;;
29534;SDS011;16475;52.650;8.116;2023-03-01T08:03:22;2.03;;;2.03;;
29534;SDS011;16475;52.650;8.116;2023-03-01T08:05:47;2.30;;;2.20;;
29534;SDS011;16475;52.650;8.116;2023-03-01T08:08:12;2.20;;;2.20;;
29534;SDS011;16475;52.650;8.116;2023-03-01T08:10:38;2.10;;;2.00;;
29534;SDS011;16475;52.650;8.116;2023-03-01T08:13:03;3.63;;;3.20;;
29534;SDS011;16475;52.650;8.116;2023-03-01T08:15:28;2.60;;;2.43;;
29534;SDS011;16475;52.650;8.116;2023-03-01T08:17:54;1.23;;;1.23;;
29534;SDS011;16475;52.650;8.116;2023-03-01T08:20:19;1.70;;;1.53;;
29534;SDS011;16475;52.650;8.116;2023-03-01T08:22:44;1.17;;;1.17;;
29534;SDS011;16475;52.650;8.116;2023-03-01T08:25:09;1.40;;;1.40;;
29534;SDS011;16475;52.650;8.116;2023-03-01T08:27:35;4.50;;;2.13;;
29534;SDS011;16475;52.650;8.116;2023-03-01T08:30:00;0.93;;;0.93;;
29534;SDS011;16475;52.650;8.116;2023-03-01T08:32:25;1.10;;;1.10;;
29534;SDS011;16475;52.650;8.116;2023-03-01T08:34:51;8.60;;;3.43;;
29534;SDS011;16475;52.650;8.116;2023-03-01T08:37:16;1.20;;;1.20;;
29534;SDS011;16475;52.650;8.116;2023-03-01T08:39:41;1.20;;;1.20;;
29534;SDS011;16475;52.650;8.116;2023-03-01T08:42:07;0.90;;;0.90;;
29534;SDS011;16475;52.650;8.116;2023-03-01T08:44:32;1.93;;;1.87;;
29534;SDS011;16475;52.650;8.116;2023-03-01T08:46:58;1.65;;;1.65;;
29534;SDS011;16475;52.650;8.116;2023-03-01T08:49:24;1.30;;;1.30;;
29534;SDS011;16475;52.650;8.116;2023-03-01T08:51:50;1.80;;;1.20;;
29534;SDS011;16475;52.650;8.116;2023-03-01T08:54:17;1.27;;;1.20;;
29534;SDS011;16475;52.650;8.116;2023-03-01T08:56:43;1.40;;;1.40;;
29534;SDS011;16475;52.650;8.116;2023-03-01T08:59:09;1.23;;;1.23;;
29534;SDS011;16475;52.650;8.116;2023-03-01T09:01:35;3.33;;;2.78;;
29534;SDS011;16475;52.650;8.116;2023-03-01T09:04:02;1.90;;;1.80;;
29534;SDS011;16475;52.650;8.116;2023-03-01T09:06:29;1.30;;;1.27;;
29534;SDS011;16475;52.650;8.116;2023-03-01T09:08:56;2.55;;;2.35;;
29534;SDS011;16475;52.650;8.116;2023-03-01T09:11:21;4.60;;;2.80;;
29534;SDS011;16475;52.650;8.116;2023-03-01T09:13:47;1.67;;;1.57;;
29534;SDS011;16475;52.650;8.116;2023-03-01T09:16:14;0.90;;;0.90;;
29534;SDS011;16475;52.650;8.116;2023-03-01T09:18:41;2.00;;;1.30;;
29534;SDS011;16475;52.650;8.116;2023-03-01T09:21:07;1.40;;;1.37;;
29534;SDS011;16475;52.650;8.116;2023-03-01T09:23:38;1.95;;;1.85;;
29534;SDS011;16475;52.650;8.116;2023-03-01T09:26:06;1.85;;;1.30;;
29534;SDS011;16475;52.650;8.116;2023-03-01T09:28:33;3.25;;;1.35;;
29534;SDS011;16475;52.650;8.116;2023-03-01T09:30:59;1.00;;;1.00;;
29534;SDS011;16475;52.650;8.116;2023-03-01T09:33:25;1.70;;;1.60;;
29534;SDS011;16475;52.650;8.116;2023-03-01T09:35:55;3.13;;;1.50;;
29534;SDS011;16475;52.650;8.116;2023-03-01T09:38:23;1.45;;;1.45;;
29534;SDS011;16475;52.650;8.116;2023-03-01T09:40:48;1.00;;;1.00;;
29534;SDS011;16475;52.650;8.116;2023-03-01T09:46:04;1.38;;;1.38;;
29534;SDS011;16475;52.650;8.116;2023-03-01T09:48:33;1.85;;;1.15;;
29534;SDS011;16475;52.650;8.116;2023-03-01T09:51:12;1.45;;;1.45;;
29534;SDS011;16475;52.650;8.116;2023-03-01T09:53:42;3.58;;;2.55;;
29534;SDS011;16475;52.650;8.116;2023-03-01T10:01:54;1.75;;;1.65;;
29534;SDS011;16475;52.650;8.116;2023-03-01T10:04:47;4.28;;;3.47;;
29534;SDS011;16475;52.650;8.116;2023-03-01T10:07:21;3.70;;;3.00;;
29534;SDS011;16475;52.650;8.116;2023-03-01T10:09:52;2.90;;;2.05;;
29534;SDS011;16475;52.650;8.116;2023-03-01T10:12:19;1.87;;;1.47;;
29534;SDS011;16475;52.650;8.116;2023-03-01T10:14:51;1.63;;;1.52;;
29534;SDS011;16475;52.650;8.116;2023-03-01T10:17:25;1.70;;;1.70;;
29534;SDS011;16475;52.650;8.116;2023-03-01T10:19:56;6.75;;;2.80;;
29534;SDS011;16475;52.650;8.116;2023-03-01T10:22:29;4.40;;;2.30;;
29534;SDS011;16475;52.650;8.116;2023-03-01T10:24:57;1.55;;;1.55;;
29534;SDS011;16475;52.650;8.116;2023-03-01T10:27:24;1.42;;;1.42;;
29534;SDS011;16475;52.650;8.116;2023-03-01T10:32:32;1.10;;;1.10;;
29534;SDS011;16475;52.650;8.116;2023-03-01T10:34:58;1.30;;;1.30;;
29534;SDS011;16475;52.650;8.116;2023-03-01T10:37:23;1.93;;;1.73;;
29534;SDS011;16475;52.650;8.116;2023-03-01T10:40:04;0.80;;;0.80;;
29534;SDS011;16475;52.650;8.116;2023-03-01T10:42:32;1.00;;;1.00;;
29534;SDS011;16475;52.650;8.116;2023-03-01T10:47:40;41.58;;;1.80;;
29534;SDS011;16475;52.650;8.116;2023-03-01T10:50:05;1.43;;;1.33;;
29534;SDS011;16475;52.650;8.116;2023-03-01T10:52:43;1.33;;;1.23;;
29534;SDS011;16475;52.650;8.116;2023-03-01T10:55:27;2.28;;;1.63;;
29534;SDS011;16475;52.650;8.116;2023-03-01T10:58:06;1.48;;;1.38;;
29534;SDS011;16475;52.650;8.116;2023-03-01T11:03:16;1.40;;;1.40;;
29534;SDS011;16475;52.650;8.116;2023-03-01T11:08:35;1.77;;;1.67;;
29534;SDS011;16475;52.650;8.116;2023-03-01T11:13:47;1.05;;;1.05;;
29534;SDS011;16475;52.650;8.116;2023-03-01T11:16:16;1.70;;;1.60;;
29534;SDS011;16475;52.650;8.116;2023-03-01T11:21:36;5.85;;;1.55;;
29534;SDS011;16475;52.650;8.116;2023-03-01T11:24:04;2.13;;;2.00;;
29534;SDS011;16475;52.650;8.116;2023-03-01T11:26:34;4.00;;;1.85;;
29534;SDS011;16475;52.650;8.116;2023-03-01T11:29:02;1.63;;;1.52;;
29534;SDS011;16475;52.650;8.116;2023-03-01T11:31:30;2.30;;;2.20;;
29534;SDS011;16475;52.650;8.116;2023-03-01T11:34:00;2.50;;;2.30;;
29534;SDS011;16475;52.650;8.116;2023-03-01T11:39:22;2.58;;;2.47;;
29534;SDS011;16475;52.650;8.116;2023-03-01T11:41:57;4.10;;;1.65;;
29534;SDS011;16475;52.650;8.116;2023-03-01T11:44:33;2.50;;;2.35;;
29534;SDS011;16475;52.650;8.116;2023-03-01T11:49:49;2.22;;;2.13;;
29534;SDS011;16475;52.650;8.116;2023-03-01T11:52:30;2.50;;;2.30;;
29534;SDS011;16475;52.650;8.116;2023-03-01T12:03:08;9.30;;;2.73;;
29534;SDS011;16475;52.650;8.116;2023-03-01T12:06:05;2.57;;;2.37;;
29534;SDS011;16475;52.650;8.116;2023-03-01T12:08:59;4.70;;;2.67;;
29534;SDS011;16475;52.650;8.116;2023-03-01T12:17:12;5.70;;;3.57;;
29534;SDS011;16475;52.650;8.116;2023-03-01T12:19:53;8.03;;;3.83;;
29534;SDS011;16475;52.650;8.116;2023-03-01T12:22:28;4.20;;;2.47;;
29534;SDS011;16475;52.650;8.116;2023-03-01T12:36:27;2.70;;;2.50;;
29534;SDS011;16475;52.650;8.116;2023-03-01T12:49:49;5.30;;;2.50;;
29534;SDS011;16475;52.650;8.116;2023-03-01T12:52:20;7.70;;;3.13;;
29534;SDS011;16475;52.650;8.116;2023-03-01T12:54:51;5.63;;;3.87;;
29534;SDS011;16475;52.650;8.116;2023-03-01T12:57:27;2.43;;;2.27;;
29534;SDS011;16475;52.650;8.116;2023-03-01T13:02:45;6.00;;;3.30;;
29534;SDS011;16475;52.650;8.116;2023-03-01T13:08:19;3.73;;;2.77;;
29534;SDS011;16475;52.650;8.116;2023-03-01T13:11:17;3.03;;;2.73;;
29534;SDS011;16475;52.650;8.116;2023-03-01T13:13:44;6.17;;;3.53;;
29534;SDS011;16475;52.650;8.116;2023-03-01T13:19:12;2.93;;;2.63;;
29534;SDS011;16475;52.650;8.116;2023-03-01T13:21:40;5.20;;;3.50;;
29534;SDS011;16475;52.650;8.116;2023-03-01T13:24:52;6.20;;;3.00;;
29534;SDS011;16475;52.650;8.116;2023-03-01T13:29:48;4.27;;;3.57;;
29534;SDS011;16475;52.650;8.116;2023-03-01T13:32:23;7.73;;;3.60;;
29534;SDS011;16475;52.650;8.116;2023-03-01T13:34:50;6.30;;;3.40;;
29534;SDS011;16475;52.650;8.116;2023-03-01T13:37:21;4.53;;;3.60;;
29534;SDS011;16475;52.650;8.116;2023-03-01T13:39:50;8.37;;;3.90;;
29534;SDS011;16475;52.650;8.116;2023-03-01T13:48:23;7.70;;;3.67;;
29534;SDS011;16475;52.650;8.116;2023-03-01T13:50:51;8.57;;;5.43;;
29534;SDS011;16475;52.650;8.116;2023-03-01T13:53:19;13.80;;;5.63;;
29534;SDS011;16475;52.650;8.116;2023-03-01T13:55:47;5.60;;;3.97;;
29534;SDS011;16475;52.650;8.116;2023-03-01T14:00:58;10.70;;;5.23;;
29534;SDS011;16475;52.650;8.116;2023-03-01T14:03:28;5.00;;;3.83;;
29534;SDS011;16475;52.650;8.116;2023-03-01T14:06:05;6.63;;;3.90;;
29534;SDS011;16475;52.650;8.116;2023-03-01T14:08:33;50.67;;;7.50;;
29534;SDS011;16475;52.650;8.116;2023-03-01T14:13:48;5.50;;;4.10;;
29534;SDS011;16475;52.650;8.116;2023-03-01T14:16:37;6.77;;;3.77;;
29534;SDS011;16475;52.650;8.116;2023-03-01T14:21:35;11.17;;;4.10;;
29534;SDS011;16475;52.650;8.116;2023-03-01T14:24:01;4.27;;;3.80;;
29534;SDS011;16475;52.650;8.116;2023-03-01T14:26:26;7.10;;;4.53;;
29534;SDS011;16475;52.650;8.116;2023-03-01T14:28:52;6.77;;;3.93;;
29534;SDS011;16475;52.650;8.116;2023-03-01T14:31:37;6.33;;;3.50;;
29534;SDS011;16475;52.650;8.116;2023-03-01T14:34:03;6.60;;;3.87;;
29534;SDS011;16475;52.650;8.116;2023-03-01T14:36:30;7.53;;;4.93;;
29534;SDS011;16475;52.650;8.116;2023-03-01T14:38:57;6.23;;;3.50;;
29534;SDS011;16475;52.650;8.116;2023-03-01T14:41:30;5.60;;;4.07;;
29534;SDS011;16475;52.650;8.116;2023-03-01T14:44:00;4.97;;;3.93;;
29534;SDS011;16475;52.650;8.116;2023-03-01T14:46:32;6.03;;;4.23;;
29534;SDS011;16475;52.650;8.116;2023-03-01T14:49:03;4.50;;;3.43;;
29534;SDS011;16475;52.650;8.116;2023-03-01T14:51:39;5.43;;;3.13;;
29534;SDS011;16475;52.650;8.116;2023-03-01T14:54:11;4.53;;;3.40;;
29534;SDS011;16475;52.650;8.116;2023-03-01T14:56:45;4.90;;;3.50;;
29534;SDS011;16475;52.650;8.116;2023-03-01T14:59:11;12.33;;;4.53;;
29534;SDS011;16475;52.650;8.116;2023-03-01T15:01:36;4.37;;;3.97;;
29534;SDS011;16475;52.650;8.116;2023-03-01T15:04:02;6.83;;;4.20;;
29534;SDS011;16475;52.650;8.116;2023-03-01T15:06:27;5.50;;;3.60;;
29534;SDS011;16475;52.650;8.116;2023-03-01T15:08:53;5.33;;;3.93;;
29534;SDS011;16475;52.650;8.116;2023-03-01T15:11:21;7.57;;;3.80;;
29534;SDS011;16475;52.650;8.116;2023-03-01T15:13:52;5.23;;;3.60;;
29534;SDS011;16475;52.650;8.116;2023-03-01T15:16:22;7.37;;;4.17;;
29534;SDS011;16475;52.650;8.116;2023-03-01T15:18:49;8.67;;;3.37;;
29534;SDS011;16475;52.650;8.116;2023-03-01T15:21:18;5.10;;;3.40;;
29534;SDS011;16475;52.650;8.116;2023-03-01T15:23:49;7.57;;;2.87;;
29534;SDS011;16475;52.650;8.116;2023-03-01T15:26:23;5.67;;;3.87;;
29534;SDS011;16475;52.650;8.116;2023-03-01T15:28:51;6.60;;;3.90;;
29534;SDS011;16475;52.650;8.116;2023-03-01T15:31:19;4.13;;;3.27;;
29534;SDS011;16475;52.650;8.116;2023-03-01T15:33:47;5.07;;;3.97;;
29534;SDS011;16475;52.650;8.116;2023-03-01T15:39:00;4.90;;;3.40;;
29534;SDS011;16475;52.650;8.116;2023-03-01T15:43:59;6.90;;;3.93;;
29534;SDS011;16475;52.650;8.116;2023-03-01T15:48:57;6.93;;;4.60;;
29534;SDS011;16475;52.650;8.116;2023-03-01T15:51:34;10.10;;;4.43;;
29534;SDS011;16475;52.650;8.116;2023-03-01T15:54:02;5.53;;;3.73;;
29534;SDS011;16475;52.650;8.116;2023-03-01T15:56:30;5.13;;;2.77;;
29534;SDS011;16475;52.650;8.116;2023-03-01T15:59:02;4.90;;;3.13;;
29534;SDS011;16475;52.650;8.116;2023-03-01T16:01:27;6.43;;;3.30;;
29534;SDS011;16475;52.650;8.116;2023-03-01T16:03:53;4.33;;;3.47;;
29534;SDS011;16475;52.650;8.116;2023-03-01T16:06:19;4.53;;;4.00;;
29534;SDS011;16475;52.650;8.116;2023-03-01T16:08:44;4.00;;;3.67;;
29534;SDS011;16475;52.650;8.116;2023-03-01T16:11:19;10.23;;;4.03;;
29534;SDS011;16475;52.650;8.116;2023-03-01T16:13:45;4.23;;;2.97;;
29534;SDS011;16475;52.650;8.116;2023-03-01T16:16:11;6.13;;;4.17;;
29534;SDS011;16475;52.650;8.116;2023-03-01T16:18:38;7.20;;;3.63;;
29534;SDS011;16475;52.650;8.116;2023-03-01T16:21:04;6.13;;;3.93;;
29534;SDS011;16475;52.650;8.116;2023-03-01T16:23:30;6.60;;;3.97;;
29534;SDS011;16475;52.650;8.116;2023-03-01T16:25:58;10.17;;;4.23;;
29534;SDS011;16475;52.650;8.116;2023-03-01T16:28:24;8.57;;;4.33;;
29534;SDS011;16475;52.650;8.116;2023-03-01T16:30:49;6.57;;;3.90;;
29534;SDS011;16475;52.650;8.116;2023-03-01T16:33:15;9.50;;;4.93;;
29534;SDS011;16475;52.650;8.116;2023-03-01T16:35:41;6.00;;;4.40;;
29534;SDS011;16475;52.650;8.116;2023-03-01T16:38:06;6.83;;;3.83;;
29534;SDS011;16475;52.650;8.116;2023-03-01T16:40:31;5.77;;;3.97;;
29534;SDS011;16475;52.650;8.116;2023-03-01T16:42:57;3.97;;;3.33;;
29534;SDS011;16475;52.650;8.116;2023-03-01T16:45:26;7.47;;;3.10;;